createdAt,value
2018-11-22T00:01:34.665Z,2.08
2018-11-22T00:02:34.542Z,2.14
2018-11-22T00:04:26.374Z,2.11
2018-11-22T00:05:26.354Z,2.12
2018-11-22T00:07:18.119Z,2.09
2018-11-22T00:08:18.154Z,2.12
2018-11-22T00:10:09.861Z,2.19
2018-11-22T00:11:10.132Z,2.09
2018-11-22T00:13:01.573Z,2.22
2018-11-22T00:14:01.473Z,2.26
2018-11-22T00:15:53.405Z,2.12
2018-11-22T00:16:53.323Z,2.12
2018-11-22T00:18:45.091Z,2.22
2018-11-22T00:19:44.987Z,2.11
2018-11-22T00:21:36.883Z,2.18
2018-11-22T00:22:36.719Z,2.19
2018-11-22T00:24:28.440Z,2.23
2018-11-22T00:25:28.493Z,2.15
2018-11-22T00:27:20.133Z,2.25
2018-11-22T00:28:20.074Z,2.30
2018-11-22T00:30:11.783Z,2.33
2018-11-22T00:31:11.724Z,2.32
2018-11-22T00:33:03.544Z,2.25
2018-11-22T00:34:03.509Z,2.29
2018-11-22T00:35:55.459Z,2.26
2018-11-22T00:36:55.203Z,2.33
2018-11-22T00:38:47.123Z,2.27
2018-11-22T00:39:47.078Z,2.27
2018-11-22T00:41:39.840Z,2.32
2018-11-22T00:42:39.725Z,2.25
2018-11-22T00:44:31.466Z,2.33
2018-11-22T00:45:31.384Z,2.25
2018-11-22T00:47:23.322Z,2.29
2018-11-22T00:48:23.102Z,2.22
2018-11-22T00:50:14.929Z,2.27
2018-11-22T00:51:14.783Z,2.33
2018-11-22T00:53:06.685Z,2.36
2018-11-22T00:54:06.612Z,2.33
2018-11-22T00:55:58.511Z,2.30
2018-11-22T00:56:58.449Z,2.25
2018-11-22T00:58:50.376Z,2.26
2018-11-22T00:59:50.318Z,2.32
2018-11-22T01:01:42.022Z,2.32
2018-11-22T01:02:41.942Z,2.25
2018-11-22T01:04:33.702Z,2.33
2018-11-22T01:05:33.636Z,2.29
2018-11-22T01:07:25.431Z,2.26
2018-11-22T01:08:25.511Z,2.19
2018-11-22T01:10:17.079Z,2.11
2018-11-22T01:11:16.987Z,2.25
2018-11-22T01:13:08.863Z,2.19
2018-11-22T01:14:08.705Z,2.14
2018-11-22T01:16:00.502Z,2.18
2018-11-22T01:17:00.397Z,2.25
2018-11-22T01:18:52.298Z,2.26
2018-11-22T01:19:52.199Z,2.30
2018-11-22T01:21:43.964Z,2.33
2018-11-22T01:22:43.879Z,2.30
2018-11-22T01:24:35.667Z,2.22
2018-11-22T01:25:35.564Z,2.26
2018-11-22T01:27:28.018Z,2.27
2018-11-22T01:28:27.220Z,2.36
2018-11-22T01:30:19.058Z,2.40
2018-11-22T01:31:18.959Z,2.22
2018-11-22T01:33:10.750Z,2.29
2018-11-22T01:34:10.700Z,2.37
2018-11-22T01:36:02.471Z,2.25
2018-11-22T01:37:02.427Z,2.36
2018-11-22T01:38:54.165Z,2.23
2018-11-22T01:39:54.306Z,2.32
2018-11-22T01:41:45.864Z,2.38
2018-11-22T01:42:45.776Z,2.37
2018-11-22T01:44:37.614Z,2.33
2018-11-22T01:45:37.636Z,2.22
2018-11-22T01:47:29.440Z,2.27
2018-11-22T01:48:29.314Z,2.30
2018-11-22T01:50:21.136Z,2.25
2018-11-22T01:51:21.062Z,2.32
2018-11-22T01:53:12.870Z,2.33
2018-11-22T01:54:12.768Z,2.32
2018-11-22T01:56:04.644Z,2.36
2018-11-22T01:57:04.568Z,2.30
2018-11-22T01:58:56.444Z,2.33
2018-11-22T01:59:56.273Z,2.38
2018-11-22T02:01:48.552Z,2.33
2018-11-22T02:02:48.478Z,2.37
2018-11-22T02:04:40.316Z,2.38
2018-11-22T02:05:40.226Z,2.32
2018-11-22T02:07:32.068Z,2.36
2018-11-22T02:08:31.956Z,2.32
2018-11-22T02:10:23.817Z,2.41
2018-11-22T02:11:23.684Z,2.33
2018-11-22T02:13:15.462Z,2.32
2018-11-22T02:14:15.368Z,2.29
2018-11-22T02:16:07.240Z,2.44
2018-11-22T02:17:07.072Z,2.40
2018-11-22T02:18:58.945Z,2.33
2018-11-22T02:19:58.860Z,2.44
2018-11-22T02:21:50.670Z,2.47
2018-11-22T02:22:50.610Z,2.38
2018-11-22T02:24:42.466Z,2.33
2018-11-22T02:25:42.405Z,2.44
2018-11-22T02:27:34.229Z,2.45
2018-11-22T02:28:34.032Z,2.48
2018-11-22T02:30:25.795Z,2.45
2018-11-22T02:31:25.732Z,2.36
2018-11-22T02:33:17.509Z,2.50
2018-11-22T02:34:17.424Z,2.47
2018-11-22T02:36:09.217Z,2.33
2018-11-22T02:37:09.071Z,2.29
2018-11-22T02:39:01.052Z,2.38
2018-11-22T02:40:00.790Z,2.44
2018-11-22T02:41:52.592Z,2.47
2018-11-22T02:42:52.518Z,2.47
2018-11-22T02:44:44.366Z,2.48
2018-11-22T02:45:44.206Z,2.44
2018-11-22T02:47:36.028Z,2.43
2018-11-22T02:48:35.919Z,2.45
2018-11-22T02:50:27.711Z,2.47
2018-11-22T02:51:27.620Z,2.47
2018-11-22T02:53:19.391Z,2.45
2018-11-22T02:54:19.287Z,2.51
2018-11-22T02:56:11.171Z,2.45
2018-11-22T02:57:10.997Z,2.43
2018-11-22T02:59:02.829Z,2.51
2018-11-22T03:00:02.724Z,2.37
2018-11-22T03:01:54.569Z,2.37
2018-11-22T03:02:54.499Z,2.51
2018-11-22T03:04:46.496Z,2.56
2018-11-22T03:05:46.333Z,2.59
2018-11-22T03:07:38.299Z,2.48
2018-11-22T03:08:38.209Z,2.48
2018-11-22T03:10:30.093Z,2.55
2018-11-22T03:11:29.995Z,2.58
2018-11-22T03:13:21.892Z,2.48
2018-11-22T03:14:21.741Z,2.56
2018-11-22T03:16:13.477Z,2.45
2018-11-22T03:17:13.378Z,2.50
2018-11-22T03:19:05.235Z,2.50
2018-11-22T03:20:05.164Z,2.55
2018-11-22T03:21:56.900Z,2.55
2018-11-22T03:22:56.786Z,2.45
2018-11-22T03:24:48.537Z,2.48
2018-11-22T03:25:48.545Z,2.50
2018-11-22T03:27:40.299Z,2.55
2018-11-22T03:28:40.250Z,2.45
2018-11-22T03:30:32.095Z,2.44
2018-11-22T03:31:31.913Z,2.55
2018-11-22T03:33:23.741Z,2.44
2018-11-22T03:34:23.675Z,2.45
2018-11-22T03:36:15.869Z,2.53
2018-11-22T03:37:15.384Z,2.53
2018-11-22T03:39:07.293Z,2.47
2018-11-22T03:40:07.120Z,2.55
2018-11-22T03:41:58.938Z,2.43
2018-11-22T03:42:58.806Z,2.61
2018-11-22T03:44:50.711Z,2.48
2018-11-22T03:45:50.612Z,2.45
2018-11-22T03:47:42.934Z,2.55
2018-11-22T03:48:42.429Z,2.45
2018-11-22T03:50:34.241Z,2.45
2018-11-22T03:51:34.139Z,2.41
2018-11-22T03:53:25.947Z,2.47
2018-11-22T03:54:25.833Z,2.59
2018-11-22T03:56:17.639Z,2.53
2018-11-22T03:57:17.530Z,2.50
2018-11-22T03:59:09.389Z,2.51
2018-11-22T04:00:09.280Z,2.61
2018-11-22T04:02:01.052Z,2.37
2018-11-22T04:03:01.022Z,2.47
2018-11-22T04:04:52.814Z,2.56
2018-11-22T04:05:52.666Z,2.47
2018-11-22T04:07:44.522Z,2.48
2018-11-22T04:08:44.419Z,2.48
2018-11-22T04:10:36.187Z,2.56
2018-11-22T04:11:36.094Z,2.44
2018-11-22T04:13:27.996Z,2.51
2018-11-22T04:14:27.816Z,2.47
2018-11-22T04:16:19.601Z,2.53
2018-11-22T04:17:19.544Z,2.61
2018-11-22T04:19:11.315Z,2.45
2018-11-22T04:20:11.221Z,2.51
2018-11-22T04:22:03.106Z,2.47
2018-11-22T04:23:02.989Z,2.53
2018-11-22T04:24:54.862Z,2.62
2018-11-22T04:25:54.720Z,2.43
2018-11-22T04:27:46.527Z,2.55
2018-11-22T04:28:46.562Z,2.47
2018-11-22T04:30:38.266Z,2.45
2018-11-22T04:31:38.163Z,2.47
2018-11-22T04:33:29.903Z,2.53
2018-11-22T04:34:29.855Z,2.55
2018-11-22T04:36:21.718Z,2.48
2018-11-22T04:37:21.528Z,2.58
2018-11-22T04:39:13.330Z,2.44
2018-11-22T04:40:13.207Z,2.45
2018-11-22T04:42:05.060Z,2.55
2018-11-22T04:43:04.923Z,2.47
2018-11-22T04:44:56.835Z,2.56
2018-11-22T04:45:56.649Z,2.55
2018-11-22T04:47:48.410Z,2.59
2018-11-22T04:48:48.321Z,2.45
2018-11-22T04:50:40.149Z,2.43
2018-11-22T04:51:40.115Z,2.45
2018-11-22T04:53:31.814Z,2.45
2018-11-22T04:54:31.749Z,2.45
2018-11-22T04:56:23.715Z,2.45
2018-11-22T04:57:23.609Z,2.47
2018-11-22T04:59:15.413Z,2.33
2018-11-22T05:00:15.335Z,2.41
2018-11-22T05:02:07.167Z,2.48
2018-11-22T05:03:07.100Z,2.47
2018-11-22T05:04:59.047Z,2.61
2018-11-22T05:05:58.981Z,2.56
2018-11-22T05:07:50.728Z,2.56
2018-11-22T05:08:51.646Z,2.45
2018-11-22T05:10:42.448Z,2.43
2018-11-22T05:11:42.375Z,2.38
2018-11-22T05:13:34.121Z,2.44
2018-11-22T05:14:34.082Z,2.45
2018-11-22T05:16:25.969Z,2.50
2018-11-22T05:17:25.744Z,2.36
2018-11-22T05:19:17.674Z,2.45
2018-11-22T05:20:17.506Z,2.44
2018-11-22T05:22:09.529Z,2.53
2018-11-22T05:23:09.254Z,2.37
2018-11-22T05:25:01.033Z,2.41
2018-11-22T05:26:00.952Z,2.45
2018-11-22T05:27:52.790Z,2.47
2018-11-22T05:28:52.701Z,2.37
2018-11-22T05:30:44.523Z,2.47
2018-11-22T05:31:44.480Z,2.47
2018-11-22T05:33:36.278Z,2.29
2018-11-22T05:34:36.338Z,2.33
2018-11-22T05:36:28.071Z,2.47
2018-11-22T05:37:27.995Z,2.44
2018-11-22T05:39:19.770Z,2.38
2018-11-22T05:40:19.692Z,2.33
2018-11-22T05:42:11.462Z,2.36
2018-11-22T05:43:11.326Z,2.29
2018-11-22T05:45:03.216Z,2.41
2018-11-22T05:46:03.042Z,2.43
2018-11-22T05:47:54.896Z,2.43
2018-11-22T05:48:54.863Z,2.41
2018-11-22T05:50:46.572Z,2.43
2018-11-22T05:51:46.553Z,2.30
2018-11-22T05:53:38.273Z,2.37
2018-11-22T05:54:38.229Z,2.36
2018-11-22T05:56:30.157Z,2.40
2018-11-22T05:57:29.866Z,2.37
2018-11-22T05:59:21.659Z,2.33
2018-11-22T06:00:21.595Z,2.40
2018-11-22T06:02:13.410Z,2.29
2018-11-22T06:03:13.264Z,2.44
2018-11-22T06:05:05.113Z,2.36
2018-11-22T06:06:05.019Z,2.44
2018-11-22T06:07:57.049Z,2.33
2018-11-22T06:08:56.791Z,2.38
2018-11-22T06:10:48.642Z,2.37
2018-11-22T06:11:48.550Z,2.36
2018-11-22T06:13:40.462Z,2.38
2018-11-22T06:14:40.436Z,2.30
2018-11-22T06:16:32.245Z,2.32
2018-11-22T06:17:32.072Z,2.32
2018-11-22T06:19:24.166Z,2.32
2018-11-22T06:20:23.811Z,2.44
2018-11-22T06:22:15.666Z,2.33
2018-11-22T06:23:15.457Z,2.38
2018-11-22T06:25:07.368Z,2.29
2018-11-22T06:26:07.284Z,2.32
2018-11-22T06:27:59.136Z,2.33
2018-11-22T06:28:59.108Z,2.30
2018-11-22T06:30:51.163Z,2.41
2018-11-22T06:31:51.078Z,2.44
2018-11-22T06:33:42.975Z,2.29
2018-11-22T06:34:42.826Z,2.40
2018-11-22T06:36:34.659Z,2.47
2018-11-22T06:37:34.545Z,2.37
2018-11-22T06:39:26.660Z,2.33
2018-11-22T06:40:26.407Z,2.32
2018-11-22T06:42:18.111Z,2.43
2018-11-22T06:43:18.129Z,2.33
2018-11-22T06:45:10.024Z,2.33
2018-11-22T06:46:09.897Z,2.37
2018-11-22T06:48:01.813Z,2.37
2018-11-22T06:49:01.836Z,2.36
2018-11-22T06:50:53.976Z,2.33
2018-11-22T06:51:53.396Z,2.41
2018-11-22T06:53:45.418Z,2.33
2018-11-22T06:54:45.329Z,2.45
2018-11-22T06:56:37.165Z,2.32
2018-11-22T06:57:37.023Z,2.44
2018-11-22T06:59:28.868Z,2.30
2018-11-22T07:00:28.794Z,2.43
2018-11-22T07:02:20.763Z,2.41
2018-11-22T07:03:20.673Z,2.45
2018-11-22T07:05:12.652Z,2.41
2018-11-22T07:06:12.408Z,2.40
2018-11-22T07:08:04.252Z,2.32
2018-11-22T07:09:04.223Z,2.50
2018-11-22T07:10:56.188Z,2.33
2018-11-22T07:11:56.031Z,2.47
2018-11-22T07:13:47.921Z,2.48
2018-11-22T07:14:48.077Z,2.44
2018-11-22T07:16:39.805Z,2.44
2018-11-22T07:17:39.484Z,2.45
2018-11-22T07:19:31.370Z,2.44
2018-11-22T07:20:31.293Z,2.41
2018-11-22T07:22:23.293Z,2.32
2018-11-22T07:23:23.283Z,2.33
2018-11-22T07:25:15.131Z,2.43
2018-11-22T07:26:14.978Z,2.43
2018-11-22T07:28:06.959Z,2.51
2018-11-22T07:29:06.904Z,2.45
2018-11-22T07:30:58.884Z,2.45
2018-11-22T07:31:58.852Z,2.32
2018-11-22T07:33:50.784Z,2.43
2018-11-22T07:34:50.606Z,2.47
2018-11-22T07:36:42.784Z,2.48
2018-11-22T07:37:42.499Z,2.37
2018-11-22T07:39:34.435Z,2.48
2018-11-22T07:40:34.237Z,2.32
2018-11-22T07:42:26.131Z,2.41
2018-11-22T07:43:26.029Z,2.33
2018-11-22T07:45:18.015Z,2.40
2018-11-22T07:46:17.816Z,2.44
2018-11-22T07:48:09.665Z,2.32
2018-11-22T07:49:09.566Z,2.47
2018-11-22T07:51:01.382Z,2.47
2018-11-22T07:52:01.438Z,2.47
2018-11-22T07:53:53.256Z,2.48
2018-11-22T07:54:53.197Z,2.47
2018-11-22T07:56:45.122Z,2.45
2018-11-22T07:57:44.967Z,2.44
2018-11-22T07:59:36.770Z,2.50
2018-11-22T08:00:36.641Z,2.45
2018-11-22T08:02:28.595Z,2.44
2018-11-22T08:03:28.508Z,2.48
2018-11-22T08:05:20.373Z,2.43
2018-11-22T08:06:20.196Z,2.47
2018-11-22T08:08:12.307Z,2.38
2018-11-22T08:09:12.237Z,2.58
2018-11-22T08:11:04.505Z,2.55
2018-11-22T08:12:04.240Z,2.50
2018-11-22T08:13:56.008Z,2.40
2018-11-22T08:14:55.910Z,2.44
2018-11-22T08:16:47.855Z,2.53
2018-11-22T08:17:47.858Z,2.56
2018-11-22T08:19:39.572Z,2.51
2018-11-22T08:20:39.480Z,2.53
2018-11-22T08:22:31.321Z,2.45
2018-11-22T08:23:31.279Z,2.45
2018-11-22T08:25:23.140Z,2.56
2018-11-22T08:26:23.020Z,2.47
2018-11-22T08:28:14.800Z,2.47
2018-11-22T08:29:14.808Z,2.43
2018-11-22T08:31:06.480Z,2.58
2018-11-22T08:32:06.471Z,2.55
2018-11-22T08:33:58.460Z,2.58
2018-11-22T08:34:58.072Z,2.51
2018-11-22T08:36:49.927Z,2.56
2018-11-22T08:37:49.799Z,2.50
2018-11-22T08:39:41.703Z,2.56
2018-11-22T08:40:41.623Z,2.50
2018-11-22T08:42:33.606Z,2.62
2018-11-22T08:43:33.435Z,2.53
2018-11-22T08:45:25.333Z,2.53
2018-11-22T08:46:25.206Z,2.58
2018-11-22T08:48:17.118Z,2.53
2018-11-22T08:49:17.035Z,2.50
2018-11-22T08:51:08.980Z,2.58
2018-11-22T08:52:08.750Z,2.61
2018-11-22T08:54:00.656Z,2.63
2018-11-22T08:55:00.489Z,2.58
2018-11-22T08:56:52.912Z,2.53
2018-11-22T08:57:52.378Z,2.56
2018-11-22T08:59:44.282Z,2.62
2018-11-22T09:00:44.165Z,2.59
2018-11-22T09:02:36.070Z,2.58
2018-11-22T09:03:36.025Z,2.61
2018-11-22T09:05:27.858Z,2.61
2018-11-22T09:06:27.754Z,2.53
2018-11-22T09:08:19.677Z,2.58
2018-11-22T09:09:19.576Z,2.63
2018-11-22T09:11:11.444Z,2.65
2018-11-22T09:12:11.296Z,2.63
2018-11-22T09:14:03.065Z,2.58
2018-11-22T09:15:03.011Z,2.55
2018-11-22T09:16:54.919Z,2.69
2018-11-22T09:17:54.832Z,2.63
2018-11-22T09:19:46.688Z,2.74
2018-11-22T09:20:46.589Z,2.76
2018-11-22T09:22:38.463Z,2.73
2018-11-22T09:23:38.643Z,2.77
2018-11-22T09:25:30.175Z,2.68
2018-11-22T09:26:30.109Z,2.73
2018-11-22T09:28:21.902Z,2.76
2018-11-22T09:29:21.804Z,2.80
2018-11-22T09:31:13.556Z,2.66
2018-11-22T09:32:13.474Z,2.68
2018-11-22T09:34:05.310Z,2.87
2018-11-22T09:35:05.255Z,2.86
2018-11-22T09:36:57.090Z,2.84
2018-11-22T09:37:56.888Z,2.76
2018-11-22T09:39:48.769Z,2.76
2018-11-22T09:40:48.666Z,2.79
2018-11-22T09:42:40.526Z,2.86
2018-11-22T09:43:40.419Z,2.79
2018-11-22T09:45:32.300Z,2.79
2018-11-22T09:46:32.115Z,2.86
2018-11-22T09:48:23.891Z,2.81
2018-11-22T09:49:23.764Z,2.83
2018-11-22T09:51:15.680Z,2.80
2018-11-22T09:52:15.506Z,2.87
2018-11-22T09:54:07.320Z,2.83
2018-11-22T09:55:07.227Z,2.76
2018-11-22T09:56:59.126Z,2.84
2018-11-22T09:57:58.973Z,2.83
2018-11-22T09:59:50.710Z,2.89
2018-11-22T10:00:50.638Z,2.79
2018-11-22T10:02:42.530Z,2.77
2018-11-22T10:03:42.455Z,2.80
2018-11-22T10:05:34.242Z,2.79
2018-11-22T10:06:34.139Z,2.76
2018-11-22T10:08:25.944Z,2.79
2018-11-22T10:09:25.831Z,2.81
2018-11-22T10:11:17.633Z,2.74
2018-11-22T10:12:17.545Z,2.79
2018-11-22T10:14:09.350Z,2.83
2018-11-22T10:15:09.294Z,2.83
2018-11-22T10:17:01.092Z,2.81
2018-11-22T10:18:00.975Z,2.80
2018-11-22T10:19:52.762Z,2.86
2018-11-22T10:20:52.707Z,2.89
2018-11-22T10:22:44.706Z,2.84
2018-11-22T10:23:44.613Z,2.80
2018-11-22T10:25:36.320Z,2.89
2018-11-22T10:26:36.210Z,2.92
2018-11-22T10:28:27.994Z,2.89
2018-11-22T10:29:28.074Z,2.89
2018-11-22T10:31:19.870Z,2.99
2018-11-22T10:32:19.724Z,2.95
2018-11-22T10:34:11.553Z,2.97
2018-11-22T10:35:11.501Z,2.99
2018-11-22T10:37:03.339Z,2.87
2018-11-22T10:38:03.384Z,2.81
2018-11-22T10:39:55.180Z,2.83
2018-11-22T10:40:55.115Z,2.80
2018-11-22T10:42:46.888Z,2.83
2018-11-22T10:43:46.730Z,2.86
2018-11-22T10:45:38.604Z,2.83
2018-11-22T10:46:38.615Z,2.87
2018-11-22T10:48:30.388Z,2.89
2018-11-22T10:49:30.437Z,3.01
2018-11-22T10:51:22.102Z,3.02
2018-11-22T10:52:22.013Z,3.02
2018-11-22T10:54:14.022Z,3.02
2018-11-22T10:55:13.826Z,2.95
2018-11-22T10:57:05.754Z,3.01
2018-11-22T10:58:05.693Z,2.95
2018-11-22T10:59:57.413Z,2.99
2018-11-22T11:00:57.396Z,3.02
2018-11-22T11:02:49.279Z,3.12
2018-11-22T11:03:49.158Z,3.20
2018-11-22T11:05:41.257Z,3.28
2018-11-22T11:06:41.242Z,3.10
2018-11-22T11:08:33.171Z,2.95
2018-11-22T11:09:32.988Z,2.97
2018-11-22T11:11:24.810Z,2.86
2018-11-22T11:12:25.565Z,2.98
2018-11-22T11:14:16.665Z,3.02
2018-11-22T11:15:16.534Z,2.99
2018-11-22T11:17:08.454Z,2.89
2018-11-22T11:18:08.323Z,2.98
2018-11-22T11:20:00.170Z,2.99
2018-11-22T11:21:00.036Z,3.12
2018-11-22T11:22:52.110Z,3.15
2018-11-22T11:23:51.742Z,3.17
2018-11-22T11:25:43.516Z,3.20
2018-11-22T11:26:43.456Z,3.17
2018-11-22T11:28:35.365Z,3.19
2018-11-22T11:29:35.230Z,3.25
2018-11-22T11:31:27.444Z,3.01
2018-11-22T11:32:27.304Z,3.04
2018-11-22T11:34:19.405Z,3.02
2018-11-22T11:35:19.056Z,2.99
2018-11-22T11:37:11.131Z,3.02
2018-11-22T11:38:11.063Z,3.05
2018-11-22T11:40:03.187Z,3.05
2018-11-22T11:41:02.629Z,3.12
2018-11-22T11:42:54.497Z,3.17
2018-11-22T11:43:54.383Z,3.19
2018-11-22T11:46:12.759Z,3.25
2018-11-22T11:47:12.633Z,3.25
2018-11-22T11:49:05.425Z,3.17
2018-11-22T11:50:05.333Z,3.20
2018-11-22T11:51:58.098Z,3.28
2018-11-22T11:52:58.088Z,3.19
2018-11-22T11:54:50.776Z,3.25
2018-11-22T11:55:50.692Z,3.23
2018-11-22T11:57:43.458Z,3.19
2018-11-22T11:58:43.383Z,3.20
2018-11-22T12:00:36.122Z,3.16
2018-11-22T12:01:36.060Z,3.19
2018-11-22T12:03:28.857Z,3.17
2018-11-22T12:04:28.773Z,3.16
2018-11-22T12:06:21.578Z,2.99
2018-11-22T12:07:21.473Z,3.02
2018-11-22T12:09:14.234Z,3.05
2018-11-22T12:10:14.143Z,3.01
2018-11-22T12:12:07.079Z,2.95
2018-11-22T12:13:06.880Z,2.97
2018-11-22T12:14:59.638Z,2.97
2018-11-22T12:15:59.560Z,2.98
2018-11-22T12:17:52.328Z,3.12
2018-11-22T12:18:52.302Z,3.07
2018-11-22T12:20:45.017Z,2.98
2018-11-22T12:21:44.930Z,3.05
2018-11-22T12:23:37.737Z,3.04
2018-11-22T12:24:37.654Z,2.95
2018-11-22T12:26:30.399Z,3.04
2018-11-22T12:27:30.326Z,3.07
2018-11-22T12:29:23.174Z,3.13
2018-11-22T12:30:23.078Z,3.05
2018-11-22T12:32:15.822Z,3.10
2018-11-22T12:33:15.857Z,3.15
2018-11-22T12:35:08.526Z,3.07
2018-11-22T12:36:08.413Z,3.07
2018-11-22T12:38:01.204Z,3.12
2018-11-22T12:39:01.126Z,3.08
2018-11-22T12:40:53.894Z,2.98
2018-11-22T12:41:53.814Z,2.92
2018-11-22T12:43:46.599Z,2.90
2018-11-22T12:44:46.528Z,2.98
2018-11-22T12:46:39.262Z,2.95
2018-11-22T12:47:39.214Z,2.92
2018-11-22T12:49:32.039Z,2.95
2018-11-22T12:50:31.859Z,3.05
2018-11-22T12:52:24.612Z,2.89
2018-11-22T12:53:24.536Z,2.89
2018-11-22T12:55:17.301Z,2.86
2018-11-22T12:56:17.214Z,2.80
2018-11-22T12:58:09.966Z,2.87
2018-11-22T12:59:09.895Z,2.89
2018-11-22T13:01:02.669Z,2.94
2018-11-22T13:02:02.582Z,2.90
2018-11-22T13:03:55.368Z,2.80
2018-11-22T13:04:55.271Z,2.86
2018-11-22T13:06:48.017Z,2.89
2018-11-22T13:07:47.942Z,2.84
2018-11-22T13:09:40.699Z,2.86
2018-11-22T13:10:40.625Z,2.84
2018-11-22T13:12:33.375Z,2.86
2018-11-22T13:13:33.295Z,2.80
2018-11-22T13:15:26.057Z,2.81
2018-11-22T13:16:25.974Z,2.84
2018-11-22T13:18:18.762Z,2.83
2018-11-22T13:19:18.655Z,2.94
2018-11-22T13:21:11.435Z,2.94
2018-11-22T13:22:11.352Z,3.02
2018-11-22T13:24:04.176Z,2.87
2018-11-22T13:25:04.111Z,2.80
2018-11-22T13:26:56.866Z,2.87
2018-11-22T13:27:56.779Z,2.81
2018-11-22T13:29:49.554Z,2.87
2018-11-22T13:30:49.452Z,2.80
2018-11-22T13:32:42.225Z,2.79
2018-11-22T13:33:42.152Z,2.84
2018-11-22T13:35:34.925Z,2.80
2018-11-22T13:36:34.848Z,2.81
2018-11-22T13:38:27.593Z,2.86
2018-11-22T13:39:27.527Z,2.83
2018-11-22T13:41:20.958Z,2.81
2018-11-22T13:42:20.203Z,2.79
2018-11-22T13:44:12.952Z,2.84
2018-11-22T13:45:12.893Z,2.84
2018-11-22T13:47:05.701Z,2.79
2018-11-22T13:48:06.270Z,2.79
2018-11-22T13:49:58.362Z,2.74
2018-11-22T13:50:58.279Z,2.76
2018-11-22T13:52:51.064Z,2.76
2018-11-22T13:53:51.015Z,2.87
2018-11-22T13:55:43.760Z,2.84
2018-11-22T13:56:43.680Z,2.80
2018-11-22T13:58:36.963Z,2.84
2018-11-22T13:59:36.852Z,2.74
2018-11-22T14:01:29.626Z,2.76
2018-11-22T14:02:29.559Z,2.68
2018-11-22T14:04:22.290Z,2.74
2018-11-22T14:05:22.216Z,2.74
2018-11-22T14:07:14.983Z,2.73
2018-11-22T14:08:14.907Z,2.80
2018-11-22T14:10:07.720Z,2.79
2018-11-22T14:11:13.596Z,2.80
2018-11-22T14:13:00.334Z,2.79
2018-11-22T14:14:00.262Z,2.71
2018-11-22T14:15:53.038Z,2.61
2018-11-22T14:16:52.953Z,2.68
2018-11-22T14:18:45.712Z,2.63
2018-11-22T14:19:45.653Z,2.71
2018-11-22T14:21:38.441Z,2.58
2018-11-22T14:22:38.407Z,2.79
2018-11-22T14:24:31.113Z,2.76
2018-11-22T14:25:31.201Z,2.68
2018-11-22T14:27:23.792Z,2.71
2018-11-22T14:28:23.705Z,2.71
2018-11-22T14:30:16.484Z,2.69
2018-11-22T14:31:16.401Z,2.69
2018-11-22T14:33:09.189Z,2.65
2018-11-22T14:34:09.109Z,2.53
2018-11-22T14:36:01.846Z,2.61
2018-11-22T14:37:01.757Z,2.59
2018-11-22T14:38:54.538Z,2.58
2018-11-22T14:39:54.471Z,2.58
2018-11-22T14:41:47.286Z,2.56
2018-11-22T14:42:47.170Z,2.59
2018-11-22T14:44:39.933Z,2.55
2018-11-22T14:45:39.855Z,2.58
2018-11-22T14:47:32.621Z,2.62
2018-11-22T14:48:32.534Z,2.61
2018-11-22T14:50:25.299Z,2.59
2018-11-22T14:51:25.212Z,2.63
2018-11-22T14:53:17.975Z,2.62
2018-11-22T14:54:17.885Z,2.58
2018-11-22T14:56:10.660Z,2.58
2018-11-22T14:57:10.597Z,2.56
2018-11-22T14:59:03.337Z,2.59
2018-11-22T15:00:03.258Z,2.53
2018-11-22T15:01:56.010Z,2.56
2018-11-22T15:02:55.927Z,2.63
2018-11-22T15:04:48.667Z,2.61
2018-11-22T15:05:48.607Z,2.48
2018-11-22T15:07:41.374Z,2.55
2018-11-22T15:08:41.295Z,2.59
2018-11-22T15:10:34.101Z,2.59
2018-11-22T15:11:33.972Z,2.58
2018-11-22T15:13:26.734Z,2.58
2018-11-22T15:14:26.659Z,2.55
2018-11-22T15:16:19.420Z,2.50
2018-11-22T15:17:19.335Z,2.62
2018-11-22T15:19:12.072Z,2.45
2018-11-22T15:20:11.998Z,2.56
2018-11-22T15:22:04.788Z,2.51
2018-11-22T15:23:04.692Z,2.63
2018-11-22T15:24:57.456Z,2.59
2018-11-22T15:25:57.383Z,2.55
2018-11-22T15:27:50.156Z,2.47
2018-11-22T15:28:50.066Z,2.51
2018-11-22T15:30:42.895Z,2.58
2018-11-22T15:31:42.743Z,2.55
2018-11-22T15:33:35.494Z,2.58
2018-11-22T15:34:35.436Z,2.56
2018-11-22T15:36:28.203Z,2.61
2018-11-22T15:37:28.118Z,2.58
2018-11-22T15:39:20.864Z,2.50
2018-11-22T15:40:20.795Z,2.56
2018-11-22T15:42:13.553Z,2.50
2018-11-22T15:43:13.493Z,2.51
2018-11-22T15:45:06.248Z,2.50
2018-11-22T15:46:06.154Z,2.56
2018-11-22T15:47:58.923Z,2.53
2018-11-22T15:48:58.839Z,2.58
2018-11-22T15:50:51.603Z,2.56
2018-11-22T15:51:51.505Z,2.51
2018-11-22T15:53:44.260Z,2.61
2018-11-22T15:54:44.181Z,2.61
2018-11-22T15:56:36.935Z,2.50
2018-11-22T15:57:36.847Z,2.61
2018-11-22T15:59:29.586Z,2.53
2018-11-22T16:00:29.516Z,2.59
2018-11-22T16:02:22.350Z,2.56
2018-11-22T16:03:22.191Z,2.56
2018-11-22T16:05:14.962Z,2.61
2018-11-22T16:06:14.873Z,2.41
2018-11-22T16:08:07.635Z,2.50
2018-11-22T16:09:07.555Z,2.51
2018-11-22T16:11:00.420Z,2.53
2018-11-22T16:12:00.242Z,2.45
2018-11-22T16:13:52.997Z,2.59
2018-11-22T16:14:52.924Z,2.50
2018-11-22T16:16:45.683Z,2.48
2018-11-22T16:17:45.605Z,2.61
2018-11-22T16:19:38.363Z,2.53
2018-11-22T16:20:38.278Z,2.56
2018-11-22T16:22:31.051Z,2.56
2018-11-22T16:23:30.951Z,2.55
2018-11-22T16:25:23.711Z,2.48
2018-11-22T16:26:23.752Z,2.50
2018-11-22T16:28:16.401Z,2.58
2018-11-22T16:29:16.318Z,2.53
2018-11-22T16:31:09.127Z,2.56
2018-11-22T16:32:09.013Z,2.51
2018-11-22T16:34:01.782Z,2.50
2018-11-22T16:35:01.716Z,2.58
2018-11-22T16:36:54.476Z,2.59
2018-11-22T16:37:54.393Z,2.51
2018-11-22T16:39:47.850Z,2.51
2018-11-22T16:40:47.062Z,2.55
2018-11-22T16:42:39.832Z,2.59
2018-11-22T16:43:39.746Z,2.50
2018-11-22T16:45:32.495Z,2.50
2018-11-22T16:46:32.425Z,2.43
2018-11-22T16:48:25.220Z,2.56
2018-11-22T16:49:25.123Z,2.47
2018-11-22T16:51:17.857Z,2.43
2018-11-22T16:52:17.785Z,2.43
2018-11-22T16:54:10.547Z,2.48
2018-11-22T16:55:10.459Z,2.48
2018-11-22T16:57:03.219Z,2.51
2018-11-22T16:58:03.128Z,2.50
2018-11-22T16:59:55.903Z,2.51
2018-11-22T17:00:55.827Z,2.50
2018-11-22T17:02:48.619Z,2.44
2018-11-22T17:03:48.508Z,2.56
2018-11-22T17:05:41.274Z,2.44
2018-11-22T17:06:41.218Z,2.48
2018-11-22T17:08:33.973Z,2.45
2018-11-22T17:09:33.895Z,2.55
2018-11-22T17:11:26.634Z,2.50
2018-11-22T17:12:26.562Z,2.58
2018-11-22T17:14:19.313Z,2.50
2018-11-22T17:15:19.234Z,2.45
2018-11-22T17:17:12.008Z,2.43
2018-11-22T17:18:12.010Z,2.48
2018-11-22T17:20:04.659Z,2.40
2018-11-22T17:21:04.583Z,2.47
2018-11-22T17:22:57.368Z,2.45
2018-11-22T17:23:57.267Z,2.47
2018-11-22T17:25:50.051Z,2.36
2018-11-22T17:26:50.008Z,2.33
2018-11-22T17:28:42.750Z,2.36
2018-11-22T17:29:42.661Z,2.33
2018-11-22T17:31:35.512Z,2.38
2018-11-22T17:32:35.425Z,2.36
2018-11-22T17:34:28.224Z,2.29
2018-11-22T17:35:28.100Z,2.36
2018-11-22T17:37:20.908Z,2.36
2018-11-22T17:38:20.808Z,2.36
2018-11-22T17:40:14.570Z,2.37
2018-11-22T17:41:13.479Z,2.30
2018-11-22T17:43:06.270Z,2.29
2018-11-22T17:44:06.185Z,2.38
2018-11-22T17:45:58.950Z,2.37
2018-11-22T17:46:58.865Z,2.36
2018-11-22T17:48:51.624Z,2.33
2018-11-22T17:49:51.540Z,2.33
2018-11-22T17:51:44.288Z,2.33
2018-11-22T17:52:44.215Z,2.30
2018-11-22T17:54:37.010Z,2.32
2018-11-22T17:55:36.890Z,2.29
2018-11-22T17:57:29.654Z,2.23
2018-11-22T17:58:29.565Z,2.12
2018-11-22T18:00:22.348Z,2.23
2018-11-22T18:01:22.262Z,2.20
2018-11-22T18:03:15.027Z,2.30
2018-11-22T18:04:14.941Z,2.22
2018-11-22T18:06:07.737Z,2.15
2018-11-22T18:07:07.629Z,2.09
2018-11-22T18:09:00.390Z,2.19
2018-11-22T18:10:00.306Z,2.22
2018-11-22T18:11:53.052Z,2.20
2018-11-22T18:12:53.010Z,2.20
2018-11-22T18:14:45.741Z,2.18
2018-11-22T18:15:45.655Z,2.09
2018-11-22T18:17:38.395Z,2.12
2018-11-22T18:18:38.351Z,2.19
2018-11-22T18:20:31.105Z,2.12
2018-11-22T18:21:31.015Z,2.09
2018-11-22T18:23:23.806Z,2.22
2018-11-22T18:24:23.704Z,2.09
2018-11-22T18:26:17.316Z,2.19
2018-11-22T18:27:17.221Z,2.08
2018-11-22T18:29:10.005Z,2.14
2018-11-22T18:30:09.927Z,2.07
2018-11-22T18:32:02.722Z,2.07
2018-11-22T18:33:02.636Z,2.12
2018-11-22T18:34:55.544Z,2.08
2018-11-22T18:35:55.319Z,2.08
2018-11-22T18:37:48.163Z,2.11
2018-11-22T18:38:48.001Z,2.14
2018-11-22T18:40:40.820Z,2.11
2018-11-22T18:41:40.698Z,2.12
2018-11-22T18:43:35.460Z,2.14
2018-11-22T18:44:33.379Z,2.05
2018-11-22T18:46:26.210Z,2.07
2018-11-22T18:47:26.125Z,2.04
2018-11-22T18:49:18.894Z,2.05
2018-11-22T18:50:18.797Z,2.04
2018-11-22T18:52:11.551Z,2.09
2018-11-22T18:53:11.509Z,2.07
2018-11-22T18:55:04.256Z,2.07
2018-11-22T18:56:04.134Z,2.07
2018-11-22T18:57:56.910Z,2.05
2018-11-22T18:58:56.810Z,2.00
2018-11-22T19:00:49.591Z,2.08
2018-11-22T19:01:49.474Z,2.20
2018-11-22T19:03:42.318Z,2.09
2018-11-22T19:04:42.148Z,2.18
2018-11-22T19:06:34.918Z,2.07